Weather at Hyundai Camelia Haute Apartments Heliports

Public forecast

Using degrees Celsius for public forecast. Weather courtesy of forecast.io.

Closest aviation weather report (METAR) to Hyundai Camelia Haute Apartments Heliports

Closest report is Gimhae International Airport, 10.5 nm (19.4 km) W. Retrieved 2020/10/21 07:00 UTC (3 minutes ago):

RKPK 210700Z 33006KT 9999 -RA FEW040 BKN090 19/12 Q1016

Closest aviation forecast (TAF) to Hyundai Camelia Haute Apartments Heliports

Closest forecast is Gimhae International Airport, 10.5 nm (19.4 km) W. Retrieved 2020/10/21 06:00 UTC (1 hour ago):

TAF RKPK 210500Z 2106/2212 18006KT CAVOK TN15/2121Z TX20/2206Z BECMG 2107/2108 03006KT 4800 -RA BR SCT030 BKN100 BECMG 2117/2118 3200 BKN030 OVC100 BECMG 2120/2121 4800 BR BKN030 BKN200 BECMG 2123/2124 33008KT 9999 NSW SCT030 BKN200 BECMG 2205/2206 33012KT